createdAt,value
2023-01-19T00:00:29.734Z,100197.91
2023-01-19T00:02:56.211Z,100204.88
2023-01-19T00:05:22.633Z,100193.75
2023-01-19T00:07:49.065Z,100199.81
2023-01-19T00:10:15.895Z,100192.94
2023-01-19T00:12:42.390Z,100192.13
2023-01-19T00:15:09.468Z,100199.00
2023-01-19T00:17:36.085Z,100188.47
2023-01-19T00:20:03.890Z,100189.16
2023-01-19T00:22:30.364Z,100191.50
2023-01-19T00:24:56.780Z,100203.09
2023-01-19T00:27:23.356Z,100216.16
2023-01-19T00:29:49.826Z,100215.41
2023-01-19T00:32:17.786Z,100210.47
2023-01-19T00:34:49.435Z,100183.72
2023-01-19T00:37:17.293Z,100212.53
2023-01-19T00:39:43.868Z,100210.19
2023-01-19T00:42:32.192Z,100198.97
2023-01-19T00:44:58.701Z,100199.78
2023-01-19T00:47:25.346Z,100204.22
2023-01-19T00:49:51.769Z,100192.94
2023-01-19T00:52:18.129Z,100194.72
2023-01-19T00:54:44.527Z,100190.91
2023-01-19T00:57:10.933Z,100196.84
2023-01-19T00:59:37.319Z,100194.44
2023-01-19T01:02:03.933Z,100193.41
2023-01-19T01:04:30.749Z,100184.78
2023-01-19T01:06:57.274Z,100185.53
2023-01-19T01:09:24.265Z,100189.75
2023-01-19T01:11:50.691Z,100190.56
2023-01-19T01:14:18.183Z,100181.94
2023-01-19T01:16:44.718Z,100183.59
2023-01-19T01:19:11.142Z,100182.72
2023-01-19T01:21:37.501Z,100188.13
2023-01-19T01:24:04.273Z,100186.41
2023-01-19T01:26:30.833Z,100185.59
2023-01-19T01:28:57.269Z,100187.44
2023-01-19T01:31:23.714Z,100194.44
2023-01-19T01:33:50.477Z,100192.00
2023-01-19T01:36:18.933Z,100192.94
2023-01-19T01:38:45.414Z,100197.34
2023-01-19T01:41:12.157Z,100192.13
2023-01-19T01:43:45.132Z,100198.13
2023-01-19T01:46:12.258Z,100203.19
2023-01-19T01:48:40.465Z,100201.34
2023-01-19T01:51:25.090Z,100202.22
2023-01-19T01:54:07.149Z,100197.94
2023-01-19T01:56:40.193Z,100196.00
2023-01-19T01:59:11.297Z,100195.81
2023-01-19T02:01:56.721Z,100182.66
2023-01-19T02:04:24.009Z,100200.78
2023-01-19T02:07:09.782Z,100205.00
2023-01-19T02:09:56.175Z,100205.84
2023-01-19T02:12:42.003Z,100205.72
2023-01-19T02:15:17.007Z,100209.09
2023-01-19T02:17:43.430Z,100205.69
2023-01-19T02:20:11.104Z,100208.22
2023-01-19T02:22:46.539Z,100213.41
2023-01-19T02:25:13.436Z,100212.44
2023-01-19T02:27:39.872Z,100211.47
2023-01-19T02:30:07.914Z,100207.13
2023-01-19T02:32:34.266Z,100216.53
2023-01-19T02:35:00.868Z,100220.84
2023-01-19T02:37:31.126Z,100228.56
2023-01-19T02:40:01.569Z,100231.94
2023-01-19T02:42:37.323Z,100230.09
2023-01-19T02:45:06.781Z,100248.13
2023-01-19T02:47:40.671Z,100238.66
2023-01-19T02:50:39.065Z,100242.09
2023-01-19T02:53:24.955Z,100252.50
2023-01-19T02:56:03.309Z,100252.56
2023-01-19T02:58:53.756Z,100255.16
2023-01-19T03:01:38.785Z,100258.63
2023-01-19T03:04:42.725Z,100253.31
2023-01-19T03:07:23.320Z,100262.00
2023-01-19T03:09:58.524Z,100278.44
2023-01-19T03:12:46.860Z,100271.41
2023-01-19T03:15:43.118Z,100276.50
2023-01-19T03:18:12.419Z,100269.56
2023-01-19T03:20:40.185Z,100257.50
2023-01-19T03:23:10.522Z,100259.13
2023-01-19T03:25:39.770Z,100272.97
2023-01-19T03:28:06.233Z,100268.66
2023-01-19T03:30:39.287Z,100268.59
2023-01-19T03:33:14.639Z,100271.25
2023-01-19T03:35:45.887Z,100273.72
2023-01-19T03:38:15.934Z,100284.97
2023-01-19T03:40:43.567Z,100279.72
2023-01-19T03:43:10.828Z,100279.72
2023-01-19T03:45:39.244Z,100281.47
2023-01-19T03:48:06.484Z,100277.13
2023-01-19T03:50:32.860Z,100287.56
2023-01-19T03:53:06.007Z,100293.78
2023-01-19T03:55:32.860Z,100289.44
2023-01-19T03:57:59.204Z,100295.50
2023-01-19T04:00:26.078Z,100303.28
2023-01-19T04:02:52.600Z,100323.31
2023-01-19T04:05:19.237Z,100316.47
2023-01-19T04:07:48.731Z,100313.94
2023-01-19T04:10:17.067Z,100312.44
2023-01-19T04:12:43.378Z,100310.81
2023-01-19T04:15:09.807Z,100318.66
2023-01-19T04:17:36.265Z,100310.94
2023-01-19T04:20:02.646Z,100311.16
2023-01-19T04:22:29.505Z,100316.34
2023-01-19T04:24:56.190Z,100305.28
2023-01-19T04:27:22.823Z,100308.03
2023-01-19T04:29:49.242Z,100306.41
2023-01-19T04:32:15.683Z,100304.69
2023-01-19T04:34:42.025Z,100305.66
2023-01-19T04:37:11.060Z,100315.16
2023-01-19T04:39:37.374Z,100317.06
2023-01-19T04:42:03.855Z,100325.78
2023-01-19T04:44:30.151Z,100330.09
2023-01-19T04:46:56.506Z,100330.91
2023-01-19T04:49:22.836Z,100326.59
2023-01-19T04:51:49.394Z,100333.47
2023-01-19T04:54:15.835Z,100329.13
2023-01-19T04:56:42.192Z,100331.72
2023-01-19T04:59:08.576Z,100335.16
2023-01-19T05:01:35.311Z,100349.06
2023-01-19T05:04:03.671Z,100350.88
2023-01-19T05:06:30.016Z,100351.78
2023-01-19T05:08:56.431Z,100362.09
2023-01-19T05:11:22.889Z,100356.00
2023-01-19T05:13:50.930Z,100371.69
2023-01-19T05:16:17.885Z,100376.81
2023-01-19T05:18:44.340Z,100373.34
2023-01-19T05:21:10.764Z,100373.34
2023-01-19T05:23:37.127Z,100369.81
2023-01-19T05:26:03.695Z,100375.00
2023-01-19T05:28:31.917Z,100374.97
2023-01-19T05:30:58.746Z,100367.19
2023-01-19T05:33:26.020Z,100376.59
2023-01-19T05:35:54.136Z,100380.03
2023-01-19T05:38:34.334Z,100380.78
2023-01-19T05:41:02.404Z,100377.31
2023-01-19T05:43:28.760Z,100380.69
2023-01-19T05:45:55.111Z,100380.69
2023-01-19T05:48:21.719Z,100413.50
2023-01-19T05:50:49.480Z,100404.06
2023-01-19T05:53:17.147Z,100386.53
2023-01-19T05:55:43.700Z,100389.75
2023-01-19T05:58:10.126Z,100406.84
2023-01-19T06:00:36.599Z,100401.53
2023-01-19T06:03:03.497Z,100410.09
2023-01-19T06:05:30.298Z,100409.25
2023-01-19T06:07:57.088Z,100405.00
2023-01-19T06:10:23.659Z,100419.81
2023-01-19T06:12:51.668Z,100418.19
2023-01-19T06:15:18.607Z,100419.06
2023-01-19T06:17:45.012Z,100423.47
2023-01-19T06:20:13.947Z,100425.25
2023-01-19T06:22:40.459Z,100444.31
2023-01-19T06:25:07.092Z,100446.13
2023-01-19T06:27:33.407Z,100445.13
2023-01-19T06:29:59.793Z,100446.66
2023-01-19T06:32:26.181Z,100456.94
2023-01-19T06:34:54.012Z,100464.66
2023-01-19T06:37:20.552Z,100494.03
2023-01-19T06:39:46.909Z,100482.78
2023-01-19T06:42:13.343Z,100487.88
2023-01-19T06:44:47.143Z,100479.16
2023-01-19T06:47:16.352Z,100484.22
2023-01-19T06:49:43.065Z,100481.50
2023-01-19T06:52:11.316Z,100489.28
2023-01-19T06:54:37.659Z,100488.41
2023-01-19T06:57:04.366Z,100490.97
2023-01-19T06:59:31.697Z,100491.81
2023-01-19T07:01:58.979Z,100491.00
2023-01-19T07:04:26.984Z,100490.16
2023-01-19T07:06:53.390Z,100497.09
2023-01-19T07:09:20.508Z,100499.72
2023-01-19T07:11:48.337Z,100507.56
2023-01-19T07:14:15.557Z,100511.06
2023-01-19T07:16:42.192Z,100521.44
2023-01-19T07:19:10.633Z,100517.13
2023-01-19T07:21:37.192Z,100522.38
2023-01-19T07:24:03.655Z,100528.47
2023-01-19T07:26:30.868Z,100535.53
2023-01-19T07:28:57.305Z,100537.41
2023-01-19T07:31:23.763Z,100539.19
2023-01-19T07:33:50.252Z,100541.78
2023-01-19T07:36:16.599Z,100551.28
2023-01-19T07:38:42.972Z,100544.38
2023-01-19T07:41:10.708Z,100556.47
2023-01-19T07:43:37.103Z,100554.00
2023-01-19T07:46:05.229Z,100560.88
2023-01-19T07:48:31.759Z,100570.44
2023-01-19T07:51:05.570Z,100566.91
2023-01-19T07:53:32.739Z,100575.50
2023-01-19T07:55:59.122Z,100570.31
2023-01-19T07:58:26.445Z,100580.69
2023-01-19T08:00:53.040Z,100577.22
2023-01-19T08:03:19.513Z,100584.19
2023-01-19T08:05:50.627Z,100594.66
2023-01-19T08:08:17.268Z,100590.38
2023-01-19T08:10:43.763Z,100607.91
2023-01-19T08:13:10.155Z,100601.84
2023-01-19T08:15:36.584Z,100611.41
2023-01-19T08:18:05.666Z,100618.31
2023-01-19T08:20:32.340Z,100620.88
2023-01-19T08:23:02.859Z,100621.66
2023-01-19T08:25:44.499Z,100622.56
2023-01-19T08:28:13.124Z,100627.66
2023-01-19T08:30:40.652Z,100629.38
2023-01-19T08:33:09.841Z,100632.03
2023-01-19T08:35:42.080Z,100628.59
2023-01-19T08:38:09.543Z,100635.50
2023-01-19T08:40:38.413Z,100640.75
2023-01-19T08:43:07.888Z,100645.91
2023-01-19T08:45:48.082Z,100640.69
2023-01-19T08:48:16.413Z,100653.66
2023-01-19T08:50:45.331Z,100648.53
2023-01-19T08:53:11.720Z,100652.72
2023-01-19T08:55:38.189Z,100652.72
2023-01-19T08:58:05.876Z,100656.91
2023-01-19T09:00:37.968Z,100662.94
2023-01-19T09:03:06.456Z,100663.81
2023-01-19T09:05:37.130Z,100662.00
2023-01-19T09:08:06.332Z,100662.00
2023-01-19T09:10:35.877Z,100673.31
2023-01-19T09:13:04.962Z,100669.78
2023-01-19T09:15:35.648Z,100668.84
2023-01-19T09:18:03.295Z,100672.09
2023-01-19T09:20:31.256Z,100672.88
2023-01-19T09:22:58.370Z,100671.03
2023-01-19T09:25:25.523Z,100677.03
2023-01-19T09:27:52.349Z,100674.38
2023-01-19T09:30:19.448Z,100671.69
2023-01-19T09:32:46.278Z,100678.53
2023-01-19T09:35:13.047Z,100679.47
2023-01-19T09:37:39.750Z,100682.00
2023-01-19T09:40:06.719Z,100682.06
2023-01-19T09:42:43.826Z,100693.16
2023-01-19T09:45:29.309Z,100694.88
2023-01-19T09:47:58.457Z,100687.84
2023-01-19T09:50:30.524Z,100690.34
2023-01-19T09:53:14.055Z,100690.25
2023-01-19T09:55:42.529Z,100694.47
2023-01-19T09:58:16.560Z,100696.00
2023-01-19T10:00:47.786Z,100701.97
2023-01-19T10:03:17.823Z,100696.69
2023-01-19T10:06:03.675Z,100702.63
2023-01-19T10:09:05.299Z,100702.47
2023-01-19T10:11:51.461Z,100701.47
2023-01-19T10:14:27.491Z,100703.19
2023-01-19T10:17:03.327Z,100710.78
2023-01-19T10:19:37.760Z,100711.59
2023-01-19T10:22:23.143Z,100713.34
2023-01-19T10:24:56.479Z,100714.94
2023-01-19T10:27:35.089Z,100721.00
2023-01-19T10:30:02.133Z,100723.47
2023-01-19T10:32:35.701Z,100728.59
2023-01-19T10:35:23.388Z,100720.69
2023-01-19T10:37:56.236Z,100721.50
2023-01-19T10:40:34.762Z,100720.56
2023-01-19T10:43:01.680Z,100723.00
2023-01-19T10:45:31.324Z,100724.69
2023-01-19T10:48:04.493Z,100727.28
2023-01-19T10:50:37.408Z,100728.00
2023-01-19T10:53:05.944Z,100733.06
2023-01-19T10:55:38.125Z,100724.31
2023-01-19T10:58:06.387Z,100726.00
2023-01-19T11:00:43.047Z,100725.06
2023-01-19T11:03:29.784Z,100724.84
2023-01-19T11:06:20.512Z,100733.44
2023-01-19T11:08:50.184Z,100724.75
2023-01-19T11:11:18.321Z,100722.91
2023-01-19T11:13:45.411Z,100726.28
2023-01-19T11:16:30.698Z,100734.00
2023-01-19T11:18:58.291Z,100730.38
2023-01-19T11:21:26.893Z,100735.59
2023-01-19T11:24:02.254Z,100730.25
2023-01-19T11:26:44.328Z,100729.31
2023-01-19T11:29:26.485Z,100724.88
2023-01-19T11:31:54.957Z,100729.25
2023-01-19T11:34:31.474Z,100732.03
2023-01-19T11:37:03.410Z,100733.88
2023-01-19T11:39:32.392Z,100738.31
2023-01-19T11:42:02.073Z,100737.56
2023-01-19T11:44:39.090Z,100741.09
2023-01-19T11:47:14.480Z,100739.38
2023-01-19T11:50:01.526Z,100735.91
2023-01-19T11:52:58.660Z,100734.13
2023-01-19T11:55:46.930Z,100740.16
2023-01-19T11:58:16.239Z,100726.22
2023-01-19T12:00:46.279Z,100740.97
2023-01-19T12:03:20.701Z,100739.22
2023-01-19T12:05:51.509Z,100742.69
2023-01-19T12:08:26.870Z,100742.69
2023-01-19T12:10:57.220Z,100736.53
2023-01-19T12:13:26.525Z,100746.03
2023-01-19T12:16:24.461Z,100740.94
2023-01-19T12:19:25.113Z,100748.78
2023-01-19T12:21:52.538Z,100747.97
2023-01-19T12:24:36.507Z,100736.84
2023-01-19T12:27:18.244Z,100742.88
2023-01-19T12:29:46.368Z,100744.59
2023-01-19T12:32:18.517Z,100749.88
2023-01-19T12:34:49.263Z,100743.03
2023-01-19T12:37:28.727Z,100739.69
2023-01-19T12:39:57.141Z,100739.78
2023-01-19T12:42:24.590Z,100743.19
2023-01-19T12:45:06.625Z,100748.19
2023-01-19T12:47:34.173Z,100750.56
2023-01-19T12:50:07.527Z,100747.00
2023-01-19T12:52:51.304Z,100743.25
2023-01-19T12:55:38.933Z,100742.25
2023-01-19T12:58:18.507Z,100743.97
2023-01-19T13:00:47.109Z,100742.06
2023-01-19T13:03:17.343Z,100739.25
2023-01-19T13:05:43.673Z,100744.25
2023-01-19T13:08:09.996Z,100748.53
2023-01-19T13:11:10.691Z,100742.53
2023-01-19T13:13:43.845Z,100746.03
2023-01-19T13:16:19.508Z,100750.34
2023-01-19T13:18:48.424Z,100751.16
2023-01-19T13:21:27.560Z,100747.53
2023-01-19T13:23:59.174Z,100749.19
2023-01-19T13:26:28.773Z,100752.59
2023-01-19T13:29:02.668Z,100758.56
2023-01-19T13:31:35.651Z,100757.72
2023-01-19T13:34:03.958Z,100760.31
2023-01-19T13:36:42.260Z,100758.75
2023-01-19T13:39:23.936Z,100760.53
2023-01-19T13:41:54.075Z,100763.19
2023-01-19T13:44:23.654Z,100758.94
2023-01-19T13:46:51.873Z,100763.34
2023-01-19T13:49:24.326Z,100765.09
2023-01-19T13:52:12.723Z,100766.91
2023-01-19T13:55:03.517Z,100775.59
2023-01-19T13:57:40.097Z,100779.16
2023-01-19T14:00:11.801Z,100777.47
2023-01-19T14:02:50.602Z,100784.47
2023-01-19T14:05:29.868Z,100783.72
2023-01-19T14:08:08.337Z,100788.97
2023-01-19T14:10:37.375Z,100794.25
2023-01-19T14:13:15.453Z,100791.72
2023-01-19T14:15:42.894Z,100796.13
2023-01-19T14:18:16.218Z,100794.47
2023-01-19T14:20:57.254Z,100791.91
2023-01-19T14:23:45.449Z,100799.75
2023-01-19T14:26:40.111Z,100804.13
2023-01-19T14:29:21.460Z,100805.06
2023-01-19T14:32:01.152Z,100803.38
2023-01-19T14:34:41.339Z,100798.16
2023-01-19T14:37:26.435Z,100808.50
2023-01-19T14:39:58.164Z,100804.97
2023-01-19T14:42:28.439Z,100811.94
2023-01-19T14:44:56.969Z,100812.72
2023-01-19T14:47:38.965Z,100809.28
2023-01-19T14:50:10.367Z,100810.09
2023-01-19T14:52:40.901Z,100814.34
2023-01-19T14:55:19.899Z,100811.75
2023-01-19T14:57:46.207Z,100807.44
2023-01-19T15:00:17.354Z,100808.25
2023-01-19T15:02:45.024Z,100804.88
2023-01-19T15:05:11.604Z,100804.06
2023-01-19T15:07:40.390Z,100805.78
2023-01-19T15:10:17.445Z,100798.94
2023-01-19T15:12:44.120Z,100809.31
2023-01-19T15:15:16.066Z,100814.53
2023-01-19T15:17:42.811Z,100817.97
2023-01-19T15:20:15.884Z,100812.88
2023-01-19T15:22:42.387Z,100816.44
2023-01-19T15:25:12.497Z,100817.38
2023-01-19T15:27:39.005Z,100822.56
2023-01-19T15:30:14.067Z,100831.31
2023-01-19T15:32:43.717Z,100833.91
2023-01-19T15:35:18.960Z,100833.91
2023-01-19T15:37:46.023Z,100839.16
2023-01-19T15:40:13.224Z,100842.66
2023-01-19T15:42:39.861Z,100846.22
2023-01-19T15:45:27.829Z,100852.34
2023-01-19T15:47:54.196Z,100848.09
2023-01-19T15:50:20.532Z,100850.81
2023-01-19T15:52:46.960Z,100858.81
2023-01-19T15:55:15.799Z,100854.59
2023-01-19T15:57:42.160Z,100850.41
2023-01-19T16:00:09.701Z,100854.94
2023-01-19T16:02:37.031Z,100854.19
2023-01-19T16:05:03.782Z,100858.72
2023-01-19T16:07:30.143Z,100858.00
2023-01-19T16:09:56.550Z,100858.94
2023-01-19T16:12:22.976Z,100865.13
2023-01-19T16:14:49.381Z,100864.38
2023-01-19T16:17:15.733Z,100867.94
2023-01-19T16:19:42.046Z,100868.06
2023-01-19T16:22:10.970Z,100878.50
2023-01-19T16:24:37.389Z,100877.63
2023-01-19T16:27:03.988Z,100885.53
2023-01-19T16:29:31.020Z,100883.84
2023-01-19T16:31:57.478Z,100892.56
2023-01-19T16:34:25.336Z,100891.75
2023-01-19T16:36:52.085Z,100896.06
2023-01-19T16:39:18.470Z,100892.69
2023-01-19T16:41:45.263Z,100897.97
2023-01-19T16:44:13.625Z,100903.38
2023-01-19T16:46:42.364Z,100912.06
2023-01-19T16:49:21.020Z,100911.22
2023-01-19T16:51:48.056Z,100912.03
2023-01-19T16:54:16.672Z,100911.16
2023-01-19T16:56:43.245Z,100910.31
2023-01-19T16:59:12.274Z,100912.25
2023-01-19T17:01:38.934Z,100921.00
2023-01-19T17:04:05.457Z,100916.84
2023-01-19T17:06:32.211Z,100926.34
2023-01-19T17:08:59.265Z,100925.56
2023-01-19T17:11:28.336Z,100922.97
2023-01-19T17:13:57.199Z,100924.81
2023-01-19T17:16:25.045Z,100927.47
2023-01-19T17:18:51.671Z,100935.38
2023-01-19T17:21:19.405Z,100936.34
2023-01-19T17:23:47.993Z,100942.53
2023-01-19T17:26:15.507Z,100945.16
2023-01-19T17:28:42.138Z,100954.75
2023-01-19T17:31:15.837Z,100952.25
2023-01-19T17:33:46.686Z,100952.28
2023-01-19T17:36:16.008Z,100954.09
2023-01-19T17:38:42.788Z,100955.84
2023-01-19T17:41:16.348Z,100954.22
2023-01-19T17:43:43.685Z,100955.09
2023-01-19T17:46:11.257Z,100956.88
2023-01-19T17:48:38.608Z,100951.78
2023-01-19T17:51:07.640Z,100951.78
2023-01-19T17:53:35.693Z,100954.41
2023-01-19T17:56:03.850Z,100954.44
2023-01-19T17:58:31.345Z,100953.53
2023-01-19T18:00:58.275Z,100960.34
2023-01-19T18:03:24.946Z,100957.66
2023-01-19T18:05:55.511Z,100964.47
2023-01-19T18:08:22.203Z,100977.34
2023-01-19T18:10:59.645Z,100970.53
2023-01-19T18:13:26.215Z,100974.13
2023-01-19T18:15:58.935Z,100974.13
2023-01-19T18:18:25.987Z,100967.19
2023-01-19T18:20:52.354Z,100967.06
2023-01-19T18:23:18.706Z,100975.75
2023-01-19T18:25:45.036Z,100973.03
2023-01-19T18:28:11.367Z,100979.09
2023-01-19T18:30:37.968Z,100979.09
2023-01-19T18:33:04.427Z,100989.66
2023-01-19T18:35:30.805Z,100996.41
2023-01-19T18:37:58.432Z,100987.72
2023-01-19T18:40:25.304Z,100990.28
2023-01-19T18:42:51.665Z,100988.56
2023-01-19T18:45:18.075Z,100991.94
2023-01-19T18:47:44.468Z,101003.16
2023-01-19T18:50:13.971Z,100990.19
2023-01-19T18:52:40.495Z,100989.34
2023-01-19T18:55:07.108Z,100990.19
2023-01-19T18:57:35.663Z,100985.97
2023-01-19T19:00:03.516Z,100992.03
2023-01-19T19:02:29.967Z,100997.13
2023-01-19T19:04:56.317Z,100995.38
2023-01-19T19:07:22.693Z,100992.78
2023-01-19T19:09:49.043Z,101004.09
2023-01-19T19:12:15.385Z,101000.56
2023-01-19T19:14:41.865Z,100994.47
2023-01-19T19:17:08.245Z,101003.16
2023-01-19T19:19:34.747Z,101019.63
2023-01-19T19:22:01.222Z,101029.22
2023-01-19T19:24:27.609Z,101029.28
2023-01-19T19:26:53.971Z,101022.44
2023-01-19T19:29:20.345Z,101042.31
2023-01-19T19:31:46.850Z,101043.25
2023-01-19T19:34:13.384Z,101045.94
2023-01-19T19:36:40.029Z,101044.09
2023-01-19T19:39:06.451Z,101051.91
2023-01-19T19:41:32.775Z,101057.94
2023-01-19T19:43:59.453Z,101055.25
2023-01-19T19:46:26.696Z,101059.50
2023-01-19T19:48:54.073Z,101064.59
2023-01-19T19:51:27.030Z,101066.31
2023-01-19T19:54:01.267Z,101074.16
2023-01-19T19:56:30.444Z,101077.63
2023-01-19T19:58:58.912Z,101080.34
2023-01-19T20:01:33.567Z,101079.53
2023-01-19T20:04:06.763Z,101080.41
2023-01-19T20:06:38.468Z,101069.31
2023-01-19T20:09:06.546Z,101080.50
2023-01-19T20:11:33.328Z,101079.53
2023-01-19T20:13:59.919Z,101084.75
2023-01-19T20:16:26.442Z,101083.91
2023-01-19T20:18:54.881Z,101088.22
2023-01-19T20:21:30.740Z,101096.88
2023-01-19T20:24:00.992Z,101095.94
2023-01-19T20:26:31.754Z,101103.84
2023-01-19T20:29:00.300Z,101107.31
2023-01-19T20:31:32.934Z,101117.63
2023-01-19T20:34:01.001Z,101119.44
2023-01-19T20:36:28.778Z,101118.53
2023-01-19T20:38:56.339Z,101124.78
2023-01-19T20:41:24.218Z,101129.34
2023-01-19T20:43:51.382Z,101134.63
2023-01-19T20:46:18.367Z,101139.00
2023-01-19T20:48:50.561Z,101126.88
2023-01-19T20:51:18.118Z,101144.91
2023-01-19T20:53:44.569Z,101142.25
2023-01-19T20:56:12.813Z,101149.16
2023-01-19T20:58:40.087Z,101151.63
2023-01-19T21:01:18.847Z,101148.97
2023-01-19T21:03:45.442Z,101149.69
2023-01-19T21:06:12.347Z,101144.47
2023-01-19T21:08:39.317Z,101139.22
2023-01-19T21:11:06.773Z,101135.66
2023-01-19T21:13:34.506Z,101145.97
2023-01-19T21:16:01.279Z,101135.59
2023-01-19T21:18:27.901Z,101132.06
2023-01-19T21:20:57.539Z,101127.66
2023-01-19T21:23:27.856Z,101134.59
2023-01-19T21:25:57.398Z,101141.59
2023-01-19T21:28:23.890Z,101146.84
2023-01-19T21:30:51.802Z,101149.59
2023-01-19T21:33:19.038Z,101153.91
2023-01-19T21:35:55.647Z,101159.84
2023-01-19T21:38:23.373Z,101164.25
2023-01-19T21:40:52.638Z,101154.66
2023-01-19T21:43:20.403Z,101160.72
2023-01-19T21:45:47.672Z,101160.69
2023-01-19T21:48:14.964Z,101164.16
2023-01-19T21:50:41.351Z,101160.69
2023-01-19T21:53:10.457Z,101165.88
2023-01-19T21:55:37.682Z,101169.38
2023-01-19T21:58:04.735Z,101171.13
2023-01-19T22:00:31.647Z,101173.75
2023-01-19T22:03:03.830Z,101177.34
2023-01-19T22:05:36.541Z,101175.66
2023-01-19T22:08:03.853Z,101189.50
2023-01-19T22:10:30.237Z,101182.66
2023-01-19T22:12:56.629Z,101186.13
2023-01-19T22:15:22.997Z,101195.69
2023-01-19T22:17:49.357Z,101199.22
2023-01-19T22:20:15.884Z,101202.72
2023-01-19T22:22:42.199Z,101209.69
2023-01-19T22:25:08.961Z,101205.38
2023-01-19T22:27:37.270Z,101219.25
2023-01-19T22:30:03.809Z,101219.19
2023-01-19T22:32:31.368Z,101217.53
2023-01-19T22:34:57.769Z,101225.38
2023-01-19T22:37:24.222Z,101221.06
2023-01-19T22:39:50.667Z,101227.16
2023-01-19T22:42:17.101Z,101224.56
2023-01-19T22:44:43.521Z,101220.22
2023-01-19T22:47:10.073Z,101214.97
2023-01-19T22:49:36.456Z,101220.16
2023-01-19T22:52:02.836Z,101218.47
2023-01-19T22:54:29.901Z,101220.09
2023-01-19T22:56:56.287Z,101218.31
2023-01-19T22:59:22.666Z,101219.16
2023-01-19T23:01:49.290Z,101231.34
2023-01-19T23:04:16.087Z,101224.53
2023-01-19T23:06:43.239Z,101221.94
2023-01-19T23:09:14.441Z,101229.69
2023-01-19T23:11:43.983Z,101228.84
2023-01-19T23:14:16.284Z,101226.25
2023-01-19T23:16:42.655Z,101228.88
2023-01-19T23:19:11.793Z,101232.34
2023-01-19T23:21:38.168Z,101222.00
2023-01-19T23:24:05.030Z,101228.13
2023-01-19T23:26:37.768Z,101223.78
2023-01-19T23:29:07.237Z,101232.47
2023-01-19T23:31:36.179Z,101228.97
2023-01-19T23:34:05.668Z,101227.16
2023-01-19T23:36:33.870Z,101228.00
2023-01-19T23:39:26.601Z,101221.03
2023-01-19T23:41:52.989Z,101222.75
2023-01-19T23:44:19.531Z,101227.94
2023-01-19T23:46:46.491Z,101228.78
2023-01-19T23:49:13.376Z,101237.41
2023-01-19T23:51:40.836Z,101236.63
2023-01-19T23:54:07.477Z,101232.31
2023-01-19T23:56:36.437Z,101233.16
2023-01-19T23:59:14.302Z,101239.19
